DLH9YY EDDF-EDDH
Flight info
| Callsign | DLH9YY |
|---|---|
| Flight time | 0h 43m |
| Altitude | 33000 |
| Route | MARUN3W MARUN Y150 TOLGI DCT SAS/N0441F320 P605 NOLGO NOLGO6A |
| Aircraft | A320/M-SDE3FGHIRWY/LB1 |
Departure
| Time | 2026-05-06 10:45 |
|---|---|
| Airport | Frankfurt Main Airport (EDDF) |
Arrival
| Time | 2026-05-06 11:28 |
|---|---|
| Airport | Hamburg Helmut Schmidt Airport (EDDH) |
| Time | Latitude | Longitude | Altitude | Speed | Heading |
|---|---|---|---|---|---|
| 2026-05-06 10:02 | 50.04466 | 8.56485 | 360 ft | 0 kts | 159° |
| 2026-05-06 10:32 | 50.04475 | 8.56480 | 364 ft | 4 kts | 159° |
| 2026-05-06 10:32 | 50.04501 | 8.56465 | 360 ft | 4 kts | 163° |
| 2026-05-06 10:32 | 50.04526 | 8.56458 | 358 ft | 4 kts | 198° |
| 2026-05-06 10:33 | 50.04537 | 8.56467 | 364 ft | 3 kts | 249° |
| 2026-05-06 10:33 | 50.04527 | 8.56428 | 360 ft | 4 kts | 249° |
| 2026-05-06 10:33 | 50.04518 | 8.56389 | 356 ft | 4 kts | 249° |
| 2026-05-06 10:33 | 50.04516 | 8.56382 | 356 ft | 0 kts | 249° |
| 2026-05-06 10:37 | 50.04514 | 8.56374 | 356 ft | 3 kts | 249° |
| 2026-05-06 10:37 | 50.04500 | 8.56315 | 357 ft | 8 kts | 249° |
| 2026-05-06 10:37 | 50.04477 | 8.56218 | 360 ft | 10 kts | 249° |
| 2026-05-06 10:37 | 50.04449 | 8.56102 | 363 ft | 12 kts | 249° |
| 2026-05-06 10:38 | 50.04405 | 8.56031 | 358 ft | 9 kts | 191° |
| 2026-05-06 10:38 | 50.04339 | 8.56057 | 362 ft | 11 kts | 159° |
| 2026-05-06 10:38 | 50.04291 | 8.56126 | 359 ft | 9 kts | 103° |
| 2026-05-06 10:38 | 50.04279 | 8.56213 | 360 ft | 8 kts | 135° |
| 2026-05-06 10:39 | 50.04226 | 8.56248 | 357 ft | 9 kts | 160° |
| 2026-05-06 10:39 | 50.04162 | 8.56287 | 359 ft | 10 kts | 149° |
| 2026-05-06 10:39 | 50.04148 | 8.56367 | 357 ft | 7 kts | 74° |
| 2026-05-06 10:39 | 50.04162 | 8.56426 | 358 ft | 5 kts | 71° |
| 2026-05-06 10:40 | 50.04174 | 8.56478 | 359 ft | 8 kts | 69° |
| 2026-05-06 10:40 | 50.04197 | 8.56570 | 355 ft | 9 kts | 69° |
| 2026-05-06 10:40 | 50.04219 | 8.56665 | 364 ft | 10 kts | 69° |
| 2026-05-06 10:40 | 50.04247 | 8.56779 | 362 ft | 14 kts | 70° |
| 2026-05-06 10:41 | 50.04279 | 8.56917 | 359 ft | 13 kts | 69° |
| 2026-05-06 10:41 | 50.04309 | 8.57040 | 362 ft | 11 kts | 70° |
| 2026-05-06 10:41 | 50.04334 | 8.57143 | 363 ft | 11 kts | 69° |
| 2026-05-06 10:41 | 50.04367 | 8.57283 | 362 ft | 15 kts | 71° |
| 2026-05-06 10:42 | 50.04400 | 8.57424 | 363 ft | 13 kts | 69° |
| 2026-05-06 10:42 | 50.04435 | 8.57570 | 366 ft | 16 kts | 69° |
| 2026-05-06 10:42 | 50.04471 | 8.57718 | 370 ft | 14 kts | 69° |
| 2026-05-06 10:42 | 50.04503 | 8.57851 | 367 ft | 12 kts | 69° |
| 2026-05-06 10:43 | 50.04531 | 8.57968 | 368 ft | 10 kts | 69° |
| 2026-05-06 10:43 | 50.04526 | 8.58060 | 368 ft | 7 kts | 125° |
| 2026-05-06 10:43 | 50.04493 | 8.58087 | 367 ft | 5 kts | 163° |
| 2026-05-06 10:44 | 50.04420 | 8.58125 | 367 ft | 4 kts | 161° |
| 2026-05-06 10:44 | 50.04381 | 8.58124 | 369 ft | 8 kts | 214° |
| 2026-05-06 10:44 | 50.04347 | 8.58002 | 366 ft | 23 kts | 250° |
| 2026-05-06 10:44 | 50.04203 | 8.57402 | 366 ft | 92 kts | 250° |
| 2026-05-06 10:45 | 50.03910 | 8.56181 | 355 ft | 146 kts | 249° |
| 2026-05-06 10:45 | 50.03528 | 8.54545 | 666 ft | 164 kts | 250° |
| 2026-05-06 10:45 | 50.03140 | 8.52873 | 1459 ft | 162 kts | 247° |
| 2026-05-06 10:45 | 50.02739 | 8.51227 | 2168 ft | 165 kts | 247° |
| 2026-05-06 10:46 | 50.02389 | 8.50133 | 2451 ft | 179 kts | 234° |
| 2026-05-06 10:46 | 50.01018 | 8.48401 | 3183 ft | 198 kts | 204° |
| 2026-05-06 10:46 | 49.99666 | 8.47905 | 4034 ft | 203 kts | 189° |
| 2026-05-06 10:46 | 49.98250 | 8.47632 | 4764 ft | 207 kts | 190° |
| 2026-05-06 10:47 | 49.97297 | 8.47426 | 5253 ft | 209 kts | 191° |
| 2026-05-06 10:47 | 49.95864 | 8.47054 | 6040 ft | 210 kts | 198° |
| 2026-05-06 10:47 | 49.94391 | 8.46387 | 6439 ft | 231 kts | 199° |
| 2026-05-06 10:47 | 49.92827 | 8.45630 | 7058 ft | 240 kts | 202° |
| 2026-05-06 10:48 | 49.91470 | 8.44145 | 7795 ft | 243 kts | 231° |
| 2026-05-06 10:48 | 49.90719 | 8.41806 | 8638 ft | 247 kts | 255° |
| 2026-05-06 10:48 | 49.90722 | 8.39126 | 9457 ft | 256 kts | 282° |
| 2026-05-06 10:48 | 49.91610 | 8.36639 | 10212 ft | 268 kts | 311° |
| 2026-05-06 10:49 | 49.93214 | 8.35080 | 10949 ft | 279 kts | 334° |
| 2026-05-06 10:49 | 49.95043 | 8.33922 | 11507 ft | 293 kts | 334° |
| 2026-05-06 10:49 | 49.97005 | 8.32682 | 11782 ft | 315 kts | 335° |
| 2026-05-06 10:49 | 49.99101 | 8.31356 | 12065 ft | 336 kts | 335° |
| 2026-05-06 10:50 | 50.01361 | 8.29956 | 12368 ft | 355 kts | 339° |
| 2026-05-06 10:50 | 50.03827 | 8.29100 | 12833 ft | 369 kts | 352° |
| 2026-05-06 10:50 | 50.06414 | 8.29092 | 13526 ft | 376 kts | 4° |
| 2026-05-06 10:50 | 50.08989 | 8.29931 | 14186 ft | 381 kts | 17° |
| 2026-05-06 10:51 | 50.11495 | 8.31284 | 14876 ft | 382 kts | 18° |
| 2026-05-06 10:51 | 50.14033 | 8.32629 | 15496 ft | 387 kts | 18° |
| 2026-05-06 10:51 | 50.16600 | 8.33964 | 16081 ft | 391 kts | 18° |
| 2026-05-06 10:51 | 50.19195 | 8.35312 | 16692 ft | 395 kts | 18° |
| 2026-05-06 10:52 | 50.21812 | 8.36672 | 17293 ft | 398 kts | 18° |
| 2026-05-06 10:52 | 50.24452 | 8.38050 | 17890 ft | 402 kts | 18° |
| 2026-05-06 10:52 | 50.27120 | 8.39450 | 18426 ft | 406 kts | 18° |
| 2026-05-06 10:52 | 50.29805 | 8.40866 | 18946 ft | 409 kts | 18° |
| 2026-05-06 10:53 | 50.32512 | 8.42320 | 19462 ft | 412 kts | 18° |
| 2026-05-06 10:53 | 50.35227 | 8.43807 | 19951 ft | 416 kts | 18° |
| 2026-05-06 10:53 | 50.37978 | 8.45323 | 20389 ft | 420 kts | 18° |
| 2026-05-06 10:53 | 50.40745 | 8.46847 | 20874 ft | 424 kts | 18° |
| 2026-05-06 10:54 | 50.43542 | 8.48382 | 21328 ft | 427 kts | 18° |
| 2026-05-06 10:54 | 50.46368 | 8.49929 | 21797 ft | 431 kts | 18° |
| 2026-05-06 10:54 | 50.49208 | 8.51451 | 22265 ft | 434 kts | 17° |
| 2026-05-06 10:54 | 50.52104 | 8.52894 | 22723 ft | 437 kts | 15° |
| 2026-05-06 10:55 | 50.55026 | 8.54277 | 23171 ft | 440 kts | 14° |
| 2026-05-06 10:55 | 50.58013 | 8.55658 | 23562 ft | 444 kts | 14° |
| 2026-05-06 10:55 | 50.60958 | 8.57020 | 23908 ft | 448 kts | 14° |
| 2026-05-06 10:55 | 50.63947 | 8.58672 | 24266 ft | 452 kts | 25° |
| 2026-05-06 10:56 | 50.66617 | 8.61317 | 24618 ft | 456 kts | 35° |
| 2026-05-06 10:56 | 50.69199 | 8.64246 | 24989 ft | 458 kts | 35° |
| 2026-05-06 10:56 | 50.71782 | 8.67212 | 25351 ft | 461 kts | 36° |
| 2026-05-06 10:56 | 50.74345 | 8.70174 | 25704 ft | 463 kts | 36° |
| 2026-05-06 10:57 | 50.76953 | 8.73196 | 26054 ft | 466 kts | 36° |
| 2026-05-06 10:57 | 50.79607 | 8.76273 | 26415 ft | 468 kts | 36° |
| 2026-05-06 10:57 | 50.82241 | 8.79327 | 26757 ft | 471 kts | 35° |
| 2026-05-06 10:57 | 50.84891 | 8.82399 | 27109 ft | 473 kts | 35° |
| 2026-05-06 10:58 | 50.87558 | 8.85490 | 27452 ft | 476 kts | 35° |
| 2026-05-06 10:58 | 50.90231 | 8.88591 | 27794 ft | 478 kts | 35° |
| 2026-05-06 10:58 | 50.92918 | 8.91711 | 28112 ft | 480 kts | 35° |
| 2026-05-06 10:58 | 50.95626 | 8.94856 | 28431 ft | 483 kts | 35° |
| 2026-05-06 10:59 | 50.98372 | 8.98053 | 28735 ft | 485 kts | 35° |
| 2026-05-06 10:59 | 51.01092 | 9.01227 | 29121 ft | 486 kts | 35° |
| 2026-05-06 10:59 | 51.03819 | 9.04416 | 29480 ft | 487 kts | 35° |
| 2026-05-06 10:59 | 51.06546 | 9.07613 | 29788 ft | 489 kts | 36° |
| 2026-05-06 11:00 | 51.09293 | 9.10844 | 30037 ft | 490 kts | 36° |
| 2026-05-06 11:00 | 51.11998 | 9.14032 | 30370 ft | 490 kts | 36° |
| 2026-05-06 11:00 | 51.14734 | 9.17250 | 30726 ft | 489 kts | 36° |
| 2026-05-06 11:00 | 51.17471 | 9.20468 | 31098 ft | 487 kts | 36° |
| 2026-05-06 11:01 | 51.20218 | 9.23700 | 31474 ft | 486 kts | 36° |
| 2026-05-06 11:01 | 51.22944 | 9.26923 | 31927 ft | 482 kts | 37° |
| 2026-05-06 11:01 | 51.25627 | 9.30095 | 32424 ft | 478 kts | 36° |
| 2026-05-06 11:01 | 51.28450 | 9.32880 | 32709 ft | 478 kts | 27° |
| 2026-05-06 11:02 | 51.31488 | 9.34988 | 32777 ft | 475 kts | 18° |
| 2026-05-06 11:02 | 51.37898 | 9.37458 | 32767 ft | 473 kts | 11° |
| 2026-05-06 11:03 | 51.44327 | 9.39672 | 32793 ft | 472 kts | 11° |
| 2026-05-06 11:03 | 51.50722 | 9.41906 | 32783 ft | 470 kts | 12° |
| 2026-05-06 11:04 | 51.57104 | 9.44160 | 32781 ft | 469 kts | 12° |
| 2026-05-06 11:04 | 51.63463 | 9.46412 | 32780 ft | 469 kts | 11° |
| 2026-05-06 11:05 | 51.69853 | 9.48663 | 32788 ft | 469 kts | 12° |
| 2026-05-06 11:05 | 51.76218 | 9.50914 | 32797 ft | 468 kts | 12° |
| 2026-05-06 11:06 | 51.82542 | 9.53384 | 32798 ft | 467 kts | 19° |
| 2026-05-06 11:06 | 51.88396 | 9.57807 | 32793 ft | 466 kts | 28° |
| 2026-05-06 11:07 | 51.94165 | 9.62595 | 32802 ft | 466 kts | 28° |
| 2026-05-06 11:07 | 51.99945 | 9.67385 | 32812 ft | 465 kts | 28° |
| 2026-05-06 11:08 | 52.05810 | 9.71866 | 32561 ft | 468 kts | 16° |
| 2026-05-06 11:08 | 52.09012 | 9.72700 | 31964 ft | 465 kts | 0° |
| 2026-05-06 11:08 | 52.12219 | 9.72212 | 31363 ft | 463 kts | 351° |
| 2026-05-06 11:08 | 52.15413 | 9.71439 | 30745 ft | 464 kts | 352° |
| 2026-05-06 11:09 | 52.18612 | 9.70669 | 30154 ft | 464 kts | 353° |
| 2026-05-06 11:09 | 52.21792 | 9.69916 | 29500 ft | 460 kts | 353° |
| 2026-05-06 11:09 | 52.24954 | 9.69181 | 28824 ft | 456 kts | 353° |
| 2026-05-06 11:09 | 52.28086 | 9.68460 | 28160 ft | 451 kts | 353° |
| 2026-05-06 11:10 | 52.31202 | 9.67744 | 27504 ft | 447 kts | 353° |
| 2026-05-06 11:10 | 52.34262 | 9.67039 | 26876 ft | 443 kts | 353° |
| 2026-05-06 11:10 | 52.37304 | 9.66330 | 26274 ft | 439 kts | 352° |
| 2026-05-06 11:10 | 52.40340 | 9.65617 | 25687 ft | 435 kts | 352° |
| 2026-05-06 11:11 | 52.43327 | 9.64913 | 25116 ft | 432 kts | 352° |
| 2026-05-06 11:11 | 52.46285 | 9.64217 | 24557 ft | 428 kts | 352° |
| 2026-05-06 11:11 | 52.49228 | 9.63523 | 24007 ft | 425 kts | 351° |
| 2026-05-06 11:11 | 52.52152 | 9.62832 | 23469 ft | 422 kts | 351° |
| 2026-05-06 11:12 | 52.55057 | 9.62147 | 22849 ft | 420 kts | 351° |
| 2026-05-06 11:12 | 52.56969 | 9.61698 | 22425 ft | 418 kts | 351° |
| 2026-05-06 11:12 | 52.59843 | 9.61020 | 21808 ft | 416 kts | 351° |
| 2026-05-06 11:12 | 52.62697 | 9.60346 | 21200 ft | 413 kts | 351° |
| 2026-05-06 11:13 | 52.65526 | 9.59675 | 20610 ft | 410 kts | 351° |
| 2026-05-06 11:13 | 52.68365 | 9.59001 | 20024 ft | 408 kts | 351° |
| 2026-05-06 11:13 | 52.71151 | 9.58337 | 19462 ft | 406 kts | 351° |
| 2026-05-06 11:13 | 52.73941 | 9.57672 | 18905 ft | 404 kts | 351° |
| 2026-05-06 11:14 | 52.76713 | 9.57009 | 18353 ft | 402 kts | 351° |
| 2026-05-06 11:14 | 52.79479 | 9.56350 | 17778 ft | 401 kts | 351° |
| 2026-05-06 11:14 | 52.82241 | 9.55694 | 17147 ft | 399 kts | 351° |
| 2026-05-06 11:14 | 52.84993 | 9.55035 | 16541 ft | 398 kts | 351° |
| 2026-05-06 11:15 | 52.87720 | 9.54377 | 15976 ft | 396 kts | 352° |
| 2026-05-06 11:15 | 52.90450 | 9.53721 | 15457 ft | 393 kts | 352° |
| 2026-05-06 11:15 | 52.93137 | 9.53076 | 14967 ft | 389 kts | 352° |
| 2026-05-06 11:15 | 52.95806 | 9.52435 | 14476 ft | 386 kts | 352° |
| 2026-05-06 11:16 | 52.98450 | 9.51800 | 13998 ft | 383 kts | 353° |
| 2026-05-06 11:16 | 53.01080 | 9.51170 | 13503 ft | 378 kts | 352° |
| 2026-05-06 11:16 | 53.03628 | 9.50556 | 12979 ft | 362 kts | 353° |
| 2026-05-06 11:16 | 53.06061 | 9.49965 | 12545 ft | 345 kts | 353° |
| 2026-05-06 11:17 | 53.08384 | 9.49399 | 12133 ft | 330 kts | 353° |
| 2026-05-06 11:17 | 53.10613 | 9.48858 | 11727 ft | 317 kts | 353° |
| 2026-05-06 11:17 | 53.12787 | 9.48332 | 11320 ft | 309 kts | 353° |
| 2026-05-06 11:17 | 53.14914 | 9.47819 | 10917 ft | 309 kts | 354° |
| 2026-05-06 11:18 | 53.17043 | 9.47307 | 10520 ft | 309 kts | 354° |
| 2026-05-06 11:18 | 53.19141 | 9.46800 | 10136 ft | 305 kts | 354° |
| 2026-05-06 11:18 | 53.21233 | 9.46285 | 9765 ft | 295 kts | 355° |
| 2026-05-06 11:18 | 53.23243 | 9.45949 | 9372 ft | 287 kts | 6° |
| 2026-05-06 11:19 | 53.25153 | 9.46713 | 9018 ft | 281 kts | 22° |
| 2026-05-06 11:19 | 53.26979 | 9.47857 | 8670 ft | 280 kts | 24° |
| 2026-05-06 11:19 | 53.28797 | 9.49047 | 8303 ft | 279 kts | 24° |
| 2026-05-06 11:19 | 53.30605 | 9.50217 | 7941 ft | 277 kts | 24° |
| 2026-05-06 11:20 | 53.32370 | 9.51369 | 7577 ft | 274 kts | 24° |
| 2026-05-06 11:20 | 53.34164 | 9.52546 | 7225 ft | 273 kts | 24° |
| 2026-05-06 11:20 | 53.35916 | 9.53689 | 6896 ft | 267 kts | 24° |
| 2026-05-06 11:20 | 53.37608 | 9.54788 | 6577 ft | 253 kts | 24° |
| 2026-05-06 11:21 | 53.39207 | 9.55819 | 6284 ft | 241 kts | 24° |
| 2026-05-06 11:21 | 53.40749 | 9.56808 | 5989 ft | 234 kts | 24° |
| 2026-05-06 11:21 | 53.42249 | 9.57812 | 5685 ft | 230 kts | 31° |
| 2026-05-06 11:21 | 53.43443 | 9.59500 | 5452 ft | 224 kts | 52° |
| 2026-05-06 11:22 | 53.44450 | 9.61512 | 5253 ft | 225 kts | 52° |
| 2026-05-06 11:22 | 53.45448 | 9.63505 | 5124 ft | 224 kts | 52° |
| 2026-05-06 11:22 | 53.46451 | 9.65509 | 4867 ft | 224 kts | 52° |
| 2026-05-06 11:22 | 53.47440 | 9.67481 | 4598 ft | 219 kts | 51° |
| 2026-05-06 11:23 | 53.48410 | 9.69417 | 4308 ft | 213 kts | 52° |
| 2026-05-06 11:23 | 53.49344 | 9.71283 | 4007 ft | 200 kts | 52° |
| 2026-05-06 11:23 | 53.50199 | 9.72993 | 3754 ft | 183 kts | 52° |
| 2026-05-06 11:23 | 53.50988 | 9.74572 | 3512 ft | 170 kts | 52° |
| 2026-05-06 11:24 | 53.51723 | 9.76045 | 3294 ft | 160 kts | 52° |
| 2026-05-06 11:24 | 53.52426 | 9.77454 | 3075 ft | 155 kts | 52° |
| 2026-05-06 11:24 | 53.53141 | 9.78893 | 2866 ft | 168 kts | 52° |
| 2026-05-06 11:24 | 53.53872 | 9.80355 | 2647 ft | 155 kts | 52° |
| 2026-05-06 11:25 | 53.54537 | 9.81690 | 2443 ft | 145 kts | 52° |
| 2026-05-06 11:25 | 53.55177 | 9.82976 | 2243 ft | 142 kts | 52° |
| 2026-05-06 11:25 | 53.55805 | 9.84239 | 2044 ft | 140 kts | 52° |
| 2026-05-06 11:25 | 53.56428 | 9.85492 | 1845 ft | 139 kts | 51° |
| 2026-05-06 11:26 | 53.57047 | 9.86738 | 1661 ft | 139 kts | 51° |
| 2026-05-06 11:26 | 53.57669 | 9.87990 | 1463 ft | 139 kts | 51° |
| 2026-05-06 11:26 | 53.58290 | 9.89240 | 1266 ft | 138 kts | 51° |
| 2026-05-06 11:26 | 53.58904 | 9.90478 | 1036 ft | 138 kts | 50° |
| 2026-05-06 11:27 | 53.59521 | 9.91723 | 837 ft | 138 kts | 50° |
| 2026-05-06 11:27 | 53.60140 | 9.92972 | 664 ft | 140 kts | 49° |
| 2026-05-06 11:27 | 53.60769 | 9.94236 | 471 ft | 140 kts | 49° |
| 2026-05-06 11:27 | 53.61390 | 9.95493 | 274 ft | 140 kts | 50° |
| 2026-05-06 11:28 | 53.62007 | 9.96744 | 94 ft | 139 kts | 49° |
| 2026-05-06 11:28 | 53.62585 | 9.97911 | 48 ft | 109 kts | 50° |
| 2026-05-06 11:28 | 53.62885 | 9.98514 | 49 ft | 38 kts | 50° |
| 2026-05-06 11:28 | 53.63044 | 9.98835 | 49 ft | 34 kts | 50° |
| 2026-05-06 11:29 | 53.63188 | 9.99125 | 51 ft | 31 kts | 50° |
| 2026-05-06 11:29 | 53.63275 | 9.99331 | 52 ft | 13 kts | 68° |
| 2026-05-06 11:29 | 53.63292 | 9.99505 | 50 ft | 16 kts | 95° |
| 2026-05-06 11:29 | 53.63281 | 9.99622 | 50 ft | 7 kts | 99° |
| 2026-05-06 11:30 | 53.63271 | 9.99700 | 50 ft | 9 kts | 110° |
| 2026-05-06 11:30 | 53.63226 | 9.99759 | 50 ft | 8 kts | 153° |
| 2026-05-06 11:30 | 53.63179 | 9.99800 | 50 ft | 9 kts | 152° |
| 2026-05-06 11:30 | 53.63117 | 9.99854 | 49 ft | 10 kts | 152° |
| 2026-05-06 11:31 | 53.63061 | 9.99903 | 50 ft | 8 kts | 153° |
| 2026-05-06 11:31 | 53.63012 | 9.99945 | 50 ft | 7 kts | 153° |
| 2026-05-06 11:31 | 53.62968 | 9.99984 | 50 ft | 8 kts | 147° |
| 2026-05-06 11:31 | 53.62962 | 10.00068 | 51 ft | 8 kts | 50° |
| 2026-05-06 11:32 | 53.63016 | 10.00126 | 51 ft | 11 kts | 32° |
| 2026-05-06 11:32 | 53.63084 | 10.00192 | 51 ft | 9 kts | 15° |
| 2026-05-06 11:32 | 53.63132 | 10.00191 | 51 ft | 3 kts | 353° |
| 2026-05-06 11:32 | 53.63156 | 10.00198 | 51 ft | 5 kts | 31° |
| 2026-05-06 11:33 | 53.63164 | 10.00259 | 51 ft | 4 kts | 86° |
| 2026-05-06 11:33 | 53.63166 | 10.00296 | 51 ft | 3 kts | 84° |
| 2026-05-06 11:33 | 53.63168 | 10.00320 | 51 ft | 2 kts | 84° |
| 2026-05-06 11:33 | 53.63169 | 10.00351 | 51 ft | 3 kts | 86° |
| 2026-05-06 11:34 | 53.63169 | 10.00364 | 51 ft | 0 kts | 87° |